sensor_id;sensor_type;location;lat;lon;timestamp;temperature;humidity
8715;DHT22;4394;51.208;8.904;2023-09-12T00:00:49;22.10;99.90
8715;DHT22;4394;51.208;8.904;2023-09-12T00:03:39;22.10;99.90
8715;DHT22;4394;51.208;8.904;2023-09-12T00:06:27;22.20;99.90
8715;DHT22;4394;51.208;8.904;2023-09-12T00:09:15;22.20;99.90
8715;DHT22;4394;51.208;8.904;2023-09-12T00:12:03;22.40;99.90
8715;DHT22;4394;51.208;8.904;2023-09-12T00:14:52;22.30;99.90
8715;DHT22;4394;51.208;8.904;2023-09-12T00:17:40;22.30;99.90
8715;DHT22;4394;51.208;8.904;2023-09-12T00:20:29;22.20;99.90
8715;DHT22;4394;51.208;8.904;2023-09-12T00:23:19;22.20;99.90
8715;DHT22;4394;51.208;8.904;2023-09-12T00:26:08;22.20;99.90
8715;DHT22;4394;51.208;8.904;2023-09-12T00:28:56;22.20;99.90
8715;DHT22;4394;51.208;8.904;2023-09-12T00:31:44;22.20;99.90
8715;DHT22;4394;51.208;8.904;2023-09-12T00:34:32;22.30;99.90
8715;DHT22;4394;51.208;8.904;2023-09-12T00:37:21;22.40;99.90
8715;DHT22;4394;51.208;8.904;2023-09-12T00:40:10;22.40;99.90
8715;DHT22;4394;51.208;8.904;2023-09-12T00:42:58;22.20;99.90
8715;DHT22;4394;51.208;8.904;2023-09-12T00:45:47;22.00;99.90
8715;DHT22;4394;51.208;8.904;2023-09-12T00:48:36;21.80;99.90
8715;DHT22;4394;51.208;8.904;2023-09-12T00:51:27;21.70;99.90
8715;DHT22;4394;51.208;8.904;2023-09-12T00:54:17;22.10;99.90
8715;DHT22;4394;51.208;8.904;2023-09-12T00:57:05;21.90;99.90
8715;DHT22;4394;51.208;8.904;2023-09-12T00:59:54;21.80;99.90
8715;DHT22;4394;51.208;8.904;2023-09-12T01:02:43;21.70;99.90
8715;DHT22;4394;51.208;8.904;2023-09-12T01:05:33;21.60;99.90
8715;DHT22;4394;51.208;8.904;2023-09-12T01:08:21;21.60;99.90
8715;DHT22;4394;51.208;8.904;2023-09-12T01:11:13;21.60;99.90
8715;DHT22;4394;51.208;8.904;2023-09-12T01:14:01;21.70;99.90
8715;DHT22;4394;51.208;8.904;2023-09-12T01:16:49;21.70;99.90
8715;DHT22;4394;51.208;8.904;2023-09-12T01:19:37;21.70;99.90
8715;DHT22;4394;51.208;8.904;2023-09-12T01:22:46;21.60;99.90
8715;DHT22;4394;51.208;8.904;2023-09-12T01:26:02;21.60;99.90
8715;DHT22;4394;51.208;8.904;2023-09-12T01:28:57;22.10;99.90
8715;DHT22;4394;51.208;8.904;2023-09-12T01:31:46;21.90;99.90
8715;DHT22;4394;51.208;8.904;2023-09-12T01:34:35;21.80;99.90
8715;DHT22;4394;51.208;8.904;2023-09-12T01:37:23;21.80;99.90
8715;DHT22;4394;51.208;8.904;2023-09-12T01:40:11;21.80;99.90
8715;DHT22;4394;51.208;8.904;2023-09-12T01:43:00;21.80;99.90
8715;DHT22;4394;51.208;8.904;2023-09-12T01:45:54;21.80;99.90
8715;DHT22;4394;51.208;8.904;2023-09-12T01:48:44;21.80;99.90
8715;DHT22;4394;51.208;8.904;2023-09-12T01:51:33;21.90;99.90
8715;DHT22;4394;51.208;8.904;2023-09-12T01:54:22;22.00;99.90
8715;DHT22;4394;51.208;8.904;2023-09-12T01:57:11;22.00;99.90
8715;DHT22;4394;51.208;8.904;2023-09-12T02:00:00;21.90;99.90
8715;DHT22;4394;51.208;8.904;2023-09-12T02:02:50;21.80;99.90
8715;DHT22;4394;51.208;8.904;2023-09-12T02:05:39;21.60;99.90
8715;DHT22;4394;51.208;8.904;2023-09-12T02:08:27;21.40;99.90
8715;DHT22;4394;51.208;8.904;2023-09-12T02:11:15;21.20;99.90
8715;DHT22;4394;51.208;8.904;2023-09-12T02:14:04;21.40;99.90
8715;DHT22;4394;51.208;8.904;2023-09-12T02:16:52;21.30;99.90
8715;DHT22;4394;51.208;8.904;2023-09-12T02:19:42;21.20;99.90
8715;DHT22;4394;51.208;8.904;2023-09-12T02:22:30;21.10;99.90
8715;DHT22;4394;51.208;8.904;2023-09-12T02:25:18;21.30;99.90
8715;DHT22;4394;51.208;8.904;2023-09-12T02:28:06;21.00;99.90
8715;DHT22;4394;51.208;8.904;2023-09-12T02:30:54;20.80;99.90
8715;DHT22;4394;51.208;8.904;2023-09-12T02:33:42;20.70;99.90
8715;DHT22;4394;51.208;8.904;2023-09-12T02:36:32;20.70;99.90
8715;DHT22;4394;51.208;8.904;2023-09-12T02:39:21;20.70;99.90
8715;DHT22;4394;51.208;8.904;2023-09-12T02:42:09;20.60;99.90
8715;DHT22;4394;51.208;8.904;2023-09-12T02:44:57;20.60;99.90
8715;DHT22;4394;51.208;8.904;2023-09-12T02:47:45;20.60;99.90
8715;DHT22;4394;51.208;8.904;2023-09-12T02:50:33;20.70;99.90
8715;DHT22;4394;51.208;8.904;2023-09-12T02:53:23;20.70;99.90
8715;DHT22;4394;51.208;8.904;2023-09-12T02:56:11;20.70;99.90
8715;DHT22;4394;51.208;8.904;2023-09-12T02:58:59;20.70;99.90
8715;DHT22;4394;51.208;8.904;2023-09-12T03:01:47;20.70;99.90
8715;DHT22;4394;51.208;8.904;2023-09-12T03:04:35;20.70;99.90
8715;DHT22;4394;51.208;8.904;2023-09-12T03:07:24;20.60;99.90
8715;DHT22;4394;51.208;8.904;2023-09-12T03:10:13;20.60;99.90
8715;DHT22;4394;51.208;8.904;2023-09-12T03:13:01;20.90;99.90
8715;DHT22;4394;51.208;8.904;2023-09-12T03:15:50;20.70;99.90
8715;DHT22;4394;51.208;8.904;2023-09-12T03:18:38;20.60;99.90
8715;DHT22;4394;51.208;8.904;2023-09-12T03:21:27;20.40;99.90
8715;DHT22;4394;51.208;8.904;2023-09-12T03:24:15;20.40;99.90
8715;DHT22;4394;51.208;8.904;2023-09-12T03:27:06;20.40;99.90
8715;DHT22;4394;51.208;8.904;2023-09-12T03:29:55;20.40;99.90
8715;DHT22;4394;51.208;8.904;2023-09-12T03:32:43;20.40;99.90
8715;DHT22;4394;51.208;8.904;2023-09-12T03:35:32;20.30;99.90
8715;DHT22;4394;51.208;8.904;2023-09-12T03:38:21;20.30;99.90
8715;DHT22;4394;51.208;8.904;2023-09-12T03:41:09;20.30;99.90
8715;DHT22;4394;51.208;8.904;2023-09-12T03:43:58;20.20;99.90
8715;DHT22;4394;51.208;8.904;2023-09-12T03:46:46;20.20;99.90
8715;DHT22;4394;51.208;8.904;2023-09-12T03:49:34;20.30;99.90
8715;DHT22;4394;51.208;8.904;2023-09-12T03:52:23;20.40;99.90
8715;DHT22;4394;51.208;8.904;2023-09-12T03:55:11;20.50;99.90
8715;DHT22;4394;51.208;8.904;2023-09-12T03:57:59;20.50;99.90
8715;DHT22;4394;51.208;8.904;2023-09-12T04:00:49;20.60;99.90
8715;DHT22;4394;51.208;8.904;2023-09-12T04:03:37;20.70;99.90
8715;DHT22;4394;51.208;8.904;2023-09-12T04:06:26;20.60;99.90
8715;DHT22;4394;51.208;8.904;2023-09-12T04:09:14;20.70;99.90
8715;DHT22;4394;51.208;8.904;2023-09-12T04:12:03;20.70;99.90
8715;DHT22;4394;51.208;8.904;2023-09-12T04:14:52;20.70;99.90
8715;DHT22;4394;51.208;8.904;2023-09-12T04:17:43;20.70;99.90
8715;DHT22;4394;51.208;8.904;2023-09-12T04:20:31;20.70;99.90
8715;DHT22;4394;51.208;8.904;2023-09-12T04:23:19;20.70;99.90
8715;DHT22;4394;51.208;8.904;2023-09-12T04:26:07;20.70;99.90
8715;DHT22;4394;51.208;8.904;2023-09-12T04:28:55;20.80;99.90
8715;DHT22;4394;51.208;8.904;2023-09-12T04:31:43;20.70;99.90
8715;DHT22;4394;51.208;8.904;2023-09-12T04:34:32;20.70;99.90
8715;DHT22;4394;51.208;8.904;2023-09-12T04:37:22;20.80;99.90
8715;DHT22;4394;51.208;8.904;2023-09-12T04:40:11;21.20;99.90
8715;DHT22;4394;51.208;8.904;2023-09-12T04:42:59;21.00;99.90
8715;DHT22;4394;51.208;8.904;2023-09-12T04:45:47;20.90;99.90
8715;DHT22;4394;51.208;8.904;2023-09-12T04:48:35;20.80;99.90
8715;DHT22;4394;51.208;8.904;2023-09-12T04:51:26;21.20;99.90
8715;DHT22;4394;51.208;8.904;2023-09-12T04:54:14;21.00;99.90
8715;DHT22;4394;51.208;8.904;2023-09-12T04:57:03;20.90;99.90
8715;DHT22;4394;51.208;8.904;2023-09-12T04:59:51;20.90;99.90
8715;DHT22;4394;51.208;8.904;2023-09-12T05:02:40;20.80;99.90
8715;DHT22;4394;51.208;8.904;2023-09-12T05:05:28;20.80;99.90
8715;DHT22;4394;51.208;8.904;2023-09-12T05:08:18;20.70;99.90
8715;DHT22;4394;51.208;8.904;2023-09-12T05:11:06;20.70;99.90
8715;DHT22;4394;51.208;8.904;2023-09-12T05:13:54;20.60;99.90
8715;DHT22;4394;51.208;8.904;2023-09-12T05:16:42;20.60;99.90
8715;DHT22;4394;51.208;8.904;2023-09-12T05:19:31;20.60;99.90
8715;DHT22;4394;51.208;8.904;2023-09-12T05:22:19;20.50;99.90
8715;DHT22;4394;51.208;8.904;2023-09-12T05:25:09;20.50;99.90
8715;DHT22;4394;51.208;8.904;2023-09-12T05:27:57;20.40;99.90
8715;DHT22;4394;51.208;8.904;2023-09-12T05:30:46;20.50;99.90
8715;DHT22;4394;51.208;8.904;2023-09-12T05:33:34;20.50;99.90
8715;DHT22;4394;51.208;8.904;2023-09-12T05:36:22;20.40;99.90
8715;DHT22;4394;51.208;8.904;2023-09-12T05:39:11;20.30;99.90
8715;DHT22;4394;51.208;8.904;2023-09-12T05:42:02;20.50;99.90
8715;DHT22;4394;51.208;8.904;2023-09-12T05:44:51;20.40;99.90
8715;DHT22;4394;51.208;8.904;2023-09-12T05:47:40;20.40;99.90
8715;DHT22;4394;51.208;8.904;2023-09-12T05:50:28;20.40;99.90
8715;DHT22;4394;51.208;8.904;2023-09-12T05:53:16;20.40;99.90
8715;DHT22;4394;51.208;8.904;2023-09-12T05:56:04;20.50;99.90
8715;DHT22;4394;51.208;8.904;2023-09-12T05:58:54;20.40;99.90
8715;DHT22;4394;51.208;8.904;2023-09-12T06:01:42;20.50;99.90
8715;DHT22;4394;51.208;8.904;2023-09-12T06:04:30;20.50;99.90
8715;DHT22;4394;51.208;8.904;2023-09-12T06:07:18;20.50;99.90
8715;DHT22;4394;51.208;8.904;2023-09-12T06:10:07;20.60;99.90
8715;DHT22;4394;51.208;8.904;2023-09-12T06:12:56;20.60;99.90
8715;DHT22;4394;51.208;8.904;2023-09-12T06:15:45;20.60;99.90
8715;DHT22;4394;51.208;8.904;2023-09-12T06:18:34;20.60;99.90
8715;DHT22;4394;51.208;8.904;2023-09-12T06:21:22;20.60;99.90
8715;DHT22;4394;51.208;8.904;2023-09-12T06:24:12;20.60;99.90
8715;DHT22;4394;51.208;8.904;2023-09-12T06:27:00;20.60;99.90
8715;DHT22;4394;51.208;8.904;2023-09-12T06:29:49;20.60;99.90
8715;DHT22;4394;51.208;8.904;2023-09-12T06:32:39;20.60;99.90
8715;DHT22;4394;51.208;8.904;2023-09-12T06:35:27;20.70;99.90
8715;DHT22;4394;51.208;8.904;2023-09-12T06:38:15;20.70;99.90
8715;DHT22;4394;51.208;8.904;2023-09-12T06:41:03;20.80;99.90
8715;DHT22;4394;51.208;8.904;2023-09-12T06:43:51;20.90;99.90
8715;DHT22;4394;51.208;8.904;2023-09-12T06:46:39;20.90;99.90
8715;DHT22;4394;51.208;8.904;2023-09-12T06:49:29;21.00;99.90
8715;DHT22;4394;51.208;8.904;2023-09-12T06:52:21;21.10;99.90
8715;DHT22;4394;51.208;8.904;2023-09-12T06:55:10;21.10;99.90
8715;DHT22;4394;51.208;8.904;2023-09-12T06:57:58;21.10;99.90
8715;DHT22;4394;51.208;8.904;2023-09-12T07:00:46;21.10;99.90
8715;DHT22;4394;51.208;8.904;2023-09-12T07:03:35;21.20;99.90
8715;DHT22;4394;51.208;8.904;2023-09-12T07:06:25;21.20;99.90
8715;DHT22;4394;51.208;8.904;2023-09-12T07:09:13;21.30;99.90
8715;DHT22;4394;51.208;8.904;2023-09-12T07:12:02;21.40;99.90
8715;DHT22;4394;51.208;8.904;2023-09-12T07:14:52;21.50;99.90
8715;DHT22;4394;51.208;8.904;2023-09-12T07:17:40;21.60;99.90
8715;DHT22;4394;51.208;8.904;2023-09-12T07:20:28;21.80;99.90
8715;DHT22;4394;51.208;8.904;2023-09-12T07:23:18;21.80;99.90
8715;DHT22;4394;51.208;8.904;2023-09-12T07:26:06;21.80;99.90
8715;DHT22;4394;51.208;8.904;2023-09-12T07:28:59;21.80;99.90
8715;DHT22;4394;51.208;8.904;2023-09-12T07:31:52;21.70;99.90
8715;DHT22;4394;51.208;8.904;2023-09-12T07:34:40;21.80;99.90
8715;DHT22;4394;51.208;8.904;2023-09-12T07:37:32;21.80;99.90
8715;DHT22;4394;51.208;8.904;2023-09-12T07:40:21;21.80;99.90
8715;DHT22;4394;51.208;8.904;2023-09-12T07:43:09;21.90;99.90
8715;DHT22;4394;51.208;8.904;2023-09-12T07:45:58;21.90;99.90
8715;DHT22;4394;51.208;8.904;2023-09-12T07:48:46;21.90;99.90
8715;DHT22;4394;51.208;8.904;2023-09-12T07:51:35;21.90;99.90
8715;DHT22;4394;51.208;8.904;2023-09-12T07:54:23;22.00;99.90
8715;DHT22;4394;51.208;8.904;2023-09-12T07:57:12;22.00;99.90
8715;DHT22;4394;51.208;8.904;2023-09-12T08:00:01;22.10;99.90
8715;DHT22;4394;51.208;8.904;2023-09-12T08:02:51;22.10;99.90
8715;DHT22;4394;51.208;8.904;2023-09-12T08:05:39;22.20;99.90
8715;DHT22;4394;51.208;8.904;2023-09-12T08:08:27;22.40;99.90
8715;DHT22;4394;51.208;8.904;2023-09-12T08:11:15;22.50;99.90
8715;DHT22;4394;51.208;8.904;2023-09-12T08:14:05;22.60;99.90
8715;DHT22;4394;51.208;8.904;2023-09-12T08:16:53;22.70;99.90
8715;DHT22;4394;51.208;8.904;2023-09-12T08:19:41;22.80;99.90
8715;DHT22;4394;51.208;8.904;2023-09-12T08:22:29;22.90;99.90
8715;DHT22;4394;51.208;8.904;2023-09-12T08:25:17;23.00;99.90
8715;DHT22;4394;51.208;8.904;2023-09-12T08:28:06;23.10;99.90
8715;DHT22;4394;51.208;8.904;2023-09-12T08:30:55;23.10;99.90
8715;DHT22;4394;51.208;8.904;2023-09-12T08:33:43;23.10;99.90
8715;DHT22;4394;51.208;8.904;2023-09-12T08:36:31;23.10;99.90
8715;DHT22;4394;51.208;8.904;2023-09-12T08:39:24;23.10;99.90
8715;DHT22;4394;51.208;8.904;2023-09-12T08:42:14;23.10;99.90
8715;DHT22;4394;51.208;8.904;2023-09-12T08:45:03;23.20;99.90
8715;DHT22;4394;51.208;8.904;2023-09-12T08:47:54;23.10;99.90
8715;DHT22;4394;51.208;8.904;2023-09-12T08:50:44;23.60;99.90
8715;DHT22;4394;51.208;8.904;2023-09-12T08:53:35;23.40;99.90
8715;DHT22;4394;51.208;8.904;2023-09-12T08:56:23;23.30;99.90
8715;DHT22;4394;51.208;8.904;2023-09-12T08:59:12;23.30;99.90
8715;DHT22;4394;51.208;8.904;2023-09-12T09:02:01;23.40;99.90
8715;DHT22;4394;51.208;8.904;2023-09-12T09:04:52;23.40;99.90
8715;DHT22;4394;51.208;8.904;2023-09-12T09:07:42;23.60;99.90
8715;DHT22;4394;51.208;8.904;2023-09-12T09:10:30;23.70;99.90
8715;DHT22;4394;51.208;8.904;2023-09-12T09:13:36;23.80;99.90
8715;DHT22;4394;51.208;8.904;2023-09-12T09:16:24;23.90;99.90
8715;DHT22;4394;51.208;8.904;2023-09-12T09:19:12;24.00;99.90
8715;DHT22;4394;51.208;8.904;2023-09-12T09:22:06;24.00;99.90
8715;DHT22;4394;51.208;8.904;2023-09-12T09:25:10;24.10;99.90
8715;DHT22;4394;51.208;8.904;2023-09-12T09:27:59;24.20;99.90
8715;DHT22;4394;51.208;8.904;2023-09-12T09:30:50;24.30;99.90
8715;DHT22;4394;51.208;8.904;2023-09-12T09:33:42;24.40;99.90
8715;DHT22;4394;51.208;8.904;2023-09-12T09:36:35;24.40;99.90
8715;DHT22;4394;51.208;8.904;2023-09-12T09:39:27;24.50;99.90
8715;DHT22;4394;51.208;8.904;2023-09-12T09:42:15;24.60;99.90
8715;DHT22;4394;51.208;8.904;2023-09-12T09:45:04;24.60;99.90
8715;DHT22;4394;51.208;8.904;2023-09-12T09:47:52;24.60;99.90
8715;DHT22;4394;51.208;8.904;2023-09-12T09:50:44;24.70;99.90
8715;DHT22;4394;51.208;8.904;2023-09-12T09:53:32;24.80;99.90
8715;DHT22;4394;51.208;8.904;2023-09-12T09:56:22;24.90;99.90
8715;DHT22;4394;51.208;8.904;2023-09-12T09:59:14;25.00;99.90
8715;DHT22;4394;51.208;8.904;2023-09-12T10:02:03;25.10;99.90
8715;DHT22;4394;51.208;8.904;2023-09-12T10:04:56;25.10;99.90
8715;DHT22;4394;51.208;8.904;2023-09-12T10:07:48;25.20;99.90
8715;DHT22;4394;51.208;8.904;2023-09-12T10:10:38;25.30;99.90
8715;DHT22;4394;51.208;8.904;2023-09-12T10:13:28;25.30;99.90
8715;DHT22;4394;51.208;8.904;2023-09-12T10:16:21;25.40;99.90
8715;DHT22;4394;51.208;8.904;2023-09-12T10:19:13;25.50;99.90
8715;DHT22;4394;51.208;8.904;2023-09-12T10:22:08;25.50;99.90
8715;DHT22;4394;51.208;8.904;2023-09-12T10:24:57;25.50;99.90
8715;DHT22;4394;51.208;8.904;2023-09-12T10:27:47;25.50;99.90
8715;DHT22;4394;51.208;8.904;2023-09-12T10:30:37;25.60;99.90
8715;DHT22;4394;51.208;8.904;2023-09-12T10:33:25;25.70;99.90
8715;DHT22;4394;51.208;8.904;2023-09-12T10:36:18;26.00;99.90
8715;DHT22;4394;51.208;8.904;2023-09-12T10:39:08;26.00;99.90
8715;DHT22;4394;51.208;8.904;2023-09-12T10:41:58;26.00;99.90
8715;DHT22;4394;51.208;8.904;2023-09-12T10:44:46;26.10;99.90
8715;DHT22;4394;51.208;8.904;2023-09-12T10:47:36;26.10;99.90
8715;DHT22;4394;51.208;8.904;2023-09-12T10:50:25;26.20;99.90
8715;DHT22;4394;51.208;8.904;2023-09-12T10:53:15;26.20;99.90
8715;DHT22;4394;51.208;8.904;2023-09-12T10:56:15;26.30;99.90
8715;DHT22;4394;51.208;8.904;2023-09-12T10:59:13;26.30;99.90
8715;DHT22;4394;51.208;8.904;2023-09-12T11:02:27;26.30;99.90
8715;DHT22;4394;51.208;8.904;2023-09-12T11:05:39;26.40;99.90
8715;DHT22;4394;51.208;8.904;2023-09-12T11:08:40;26.50;99.90
8715;DHT22;4394;51.208;8.904;2023-09-12T11:11:28;26.50;99.90
8715;DHT22;4394;51.208;8.904;2023-09-12T11:14:16;26.60;99.90
8715;DHT22;4394;51.208;8.904;2023-09-12T11:17:21;26.60;99.90
8715;DHT22;4394;51.208;8.904;2023-09-12T11:20:10;26.70;99.90
8715;DHT22;4394;51.208;8.904;2023-09-12T11:23:10;26.70;99.90
8715;DHT22;4394;51.208;8.904;2023-09-12T11:26:06;26.80;99.90
8715;DHT22;4394;51.208;8.904;2023-09-12T11:28:55;26.90;99.90
8715;DHT22;4394;51.208;8.904;2023-09-12T11:31:53;26.90;99.90
8715;DHT22;4394;51.208;8.904;2023-09-12T11:34:44;27.00;99.90
8715;DHT22;4394;51.208;8.904;2023-09-12T11:37:33;27.00;99.90
8715;DHT22;4394;51.208;8.904;2023-09-12T11:40:26;27.00;99.90
8715;DHT22;4394;51.208;8.904;2023-09-12T11:43:22;27.00;99.90
8715;DHT22;4394;51.208;8.904;2023-09-12T11:46:10;27.10;99.90
8715;DHT22;4394;51.208;8.904;2023-09-12T11:49:01;27.20;99.90
8715;DHT22;4394;51.208;8.904;2023-09-12T11:51:50;27.10;99.90
8715;DHT22;4394;51.208;8.904;2023-09-12T11:54:39;27.00;99.90
8715;DHT22;4394;51.208;8.904;2023-09-12T11:57:29;27.10;99.90
8715;DHT22;4394;51.208;8.904;2023-09-12T12:00:19;27.20;99.90
8715;DHT22;4394;51.208;8.904;2023-09-12T12:03:07;27.20;99.90
8715;DHT22;4394;51.208;8.904;2023-09-12T12:05:56;27.70;99.90
8715;DHT22;4394;51.208;8.904;2023-09-12T12:08:45;27.60;99.90
8715;DHT22;4394;51.208;8.904;2023-09-12T12:11:33;27.60;99.90
8715;DHT22;4394;51.208;8.904;2023-09-12T12:14:23;27.60;99.90
8715;DHT22;4394;51.208;8.904;2023-09-12T12:17:12;27.60;99.90
8715;DHT22;4394;51.208;8.904;2023-09-12T12:20:00;27.60;99.90
8715;DHT22;4394;51.208;8.904;2023-09-12T12:22:54;27.60;99.90
8715;DHT22;4394;51.208;8.904;2023-09-12T12:25:42;27.70;99.90
8715;DHT22;4394;51.208;8.904;2023-09-12T12:28:30;27.70;99.90
8715;DHT22;4394;51.208;8.904;2023-09-12T12:31:21;27.80;99.90
8715;DHT22;4394;51.208;8.904;2023-09-12T12:34:13;27.90;99.90
8715;DHT22;4394;51.208;8.904;2023-09-12T12:37:27;28.20;99.90
8715;DHT22;4394;51.208;8.904;2023-09-12T12:40:17;28.00;99.90
8715;DHT22;4394;51.208;8.904;2023-09-12T12:43:16;28.00;99.90
8715;DHT22;4394;51.208;8.904;2023-09-12T12:46:10;28.10;99.90
8715;DHT22;4394;51.208;8.904;2023-09-12T12:49:00;28.50;99.90
8715;DHT22;4394;51.208;8.904;2023-09-12T12:51:50;28.30;99.90
8715;DHT22;4394;51.208;8.904;2023-09-12T12:54:38;28.20;99.90
8715;DHT22;4394;51.208;8.904;2023-09-12T12:57:29;28.10;99.90
8715;DHT22;4394;51.208;8.904;2023-09-12T13:00:18;28.00;99.90
8715;DHT22;4394;51.208;8.904;2023-09-12T13:03:06;28.00;99.90
8715;DHT22;4394;51.208;8.904;2023-09-12T13:05:56;28.00;99.90
8715;DHT22;4394;51.208;8.904;2023-09-12T13:08:45;28.00;99.90
8715;DHT22;4394;51.208;8.904;2023-09-12T13:11:33;28.10;99.90
8715;DHT22;4394;51.208;8.904;2023-09-12T13:14:22;28.10;99.90
8715;DHT22;4394;51.208;8.904;2023-09-12T13:17:17;28.10;99.90
8715;DHT22;4394;51.208;8.904;2023-09-12T13:20:09;28.10;99.90
8715;DHT22;4394;51.208;8.904;2023-09-12T13:22:58;28.10;99.90
8715;DHT22;4394;51.208;8.904;2023-09-12T13:25:46;28.10;99.90
8715;DHT22;4394;51.208;8.904;2023-09-12T13:28:34;28.10;99.90
8715;DHT22;4394;51.208;8.904;2023-09-12T13:31:23;28.20;99.90
8715;DHT22;4394;51.208;8.904;2023-09-12T13:34:11;28.20;99.90
8715;DHT22;4394;51.208;8.904;2023-09-12T13:36:59;28.20;99.90
8715;DHT22;4394;51.208;8.904;2023-09-12T13:39:59;28.20;99.90
8715;DHT22;4394;51.208;8.904;2023-09-12T13:42:47;28.20;99.90
8715;DHT22;4394;51.208;8.904;2023-09-12T13:45:36;28.20;99.90
8715;DHT22;4394;51.208;8.904;2023-09-12T13:48:24;28.20;99.90
8715;DHT22;4394;51.208;8.904;2023-09-12T13:51:13;28.20;99.90
8715;DHT22;4394;51.208;8.904;2023-09-12T13:54:01;28.10;99.90
8715;DHT22;4394;51.208;8.904;2023-09-12T13:56:51;28.00;99.90
8715;DHT22;4394;51.208;8.904;2023-09-12T13:59:40;28.00;99.90
8715;DHT22;4394;51.208;8.904;2023-09-12T14:02:32;28.00;99.90
8715;DHT22;4394;51.208;8.904;2023-09-12T14:05:21;27.90;99.90
8715;DHT22;4394;51.208;8.904;2023-09-12T14:08:10;27.90;99.90
8715;DHT22;4394;51.208;8.904;2023-09-12T14:10:58;28.00;99.90
8715;DHT22;4394;51.208;8.904;2023-09-12T14:13:48;28.10;99.90
8715;DHT22;4394;51.208;8.904;2023-09-12T14:16:49;28.10;99.90
8715;DHT22;4394;51.208;8.904;2023-09-12T14:19:38;28.20;99.90
8715;DHT22;4394;51.208;8.904;2023-09-12T14:22:26;28.20;99.90
8715;DHT22;4394;51.208;8.904;2023-09-12T14:25:16;28.30;99.90
8715;DHT22;4394;51.208;8.904;2023-09-12T14:28:05;28.40;99.90
8715;DHT22;4394;51.208;8.904;2023-09-12T14:30:56;28.40;99.90
8715;DHT22;4394;51.208;8.904;2023-09-12T14:33:44;28.50;99.90
8715;DHT22;4394;51.208;8.904;2023-09-12T14:36:32;28.50;99.90
8715;DHT22;4394;51.208;8.904;2023-09-12T14:39:21;28.50;99.90
8715;DHT22;4394;51.208;8.904;2023-09-12T14:42:09;28.30;99.90
8715;DHT22;4394;51.208;8.904;2023-09-12T14:44:58;28.20;99.90
8715;DHT22;4394;51.208;8.904;2023-09-12T14:47:48;28.10;99.90
8715;DHT22;4394;51.208;8.904;2023-09-12T14:50:36;27.90;99.90
8715;DHT22;4394;51.208;8.904;2023-09-12T14:53:29;28.10;99.90
8715;DHT22;4394;51.208;8.904;2023-09-12T14:56:18;27.80;99.90
8715;DHT22;4394;51.208;8.904;2023-09-12T14:59:06;27.60;99.90
8715;DHT22;4394;51.208;8.904;2023-09-12T15:01:55;27.60;99.90
8715;DHT22;4394;51.208;8.904;2023-09-12T15:04:45;27.30;99.90
8715;DHT22;4394;51.208;8.904;2023-09-12T15:07:34;27.10;99.90
8715;DHT22;4394;51.208;8.904;2023-09-12T15:10:24;27.00;99.90
8715;DHT22;4394;51.208;8.904;2023-09-12T15:13:12;27.10;99.90
8715;DHT22;4394;51.208;8.904;2023-09-12T15:16:01;27.20;99.90
8715;DHT22;4394;51.208;8.904;2023-09-12T15:18:50;27.20;99.90
8715;DHT22;4394;51.208;8.904;2023-09-12T15:21:40;27.10;99.90
8715;DHT22;4394;51.208;8.904;2023-09-12T15:24:28;26.90;99.90
8715;DHT22;4394;51.208;8.904;2023-09-12T15:27:17;26.70;99.90
8715;DHT22;4394;51.208;8.904;2023-09-12T15:30:06;26.60;99.90
8715;DHT22;4394;51.208;8.904;2023-09-12T15:32:54;26.40;99.90
8715;DHT22;4394;51.208;8.904;2023-09-12T15:35:42;26.40;99.90
8715;DHT22;4394;51.208;8.904;2023-09-12T15:38:32;26.40;99.90
8715;DHT22;4394;51.208;8.904;2023-09-12T15:41:20;26.30;99.90
8715;DHT22;4394;51.208;8.904;2023-09-12T15:44:08;26.20;99.90
8715;DHT22;4394;51.208;8.904;2023-09-12T15:47:02;26.10;99.90
8715;DHT22;4394;51.208;8.904;2023-09-12T15:50:06;25.90;99.90
8715;DHT22;4394;51.208;8.904;2023-09-12T15:52:54;25.90;99.90
8715;DHT22;4394;51.208;8.904;2023-09-12T15:55:43;25.80;99.90
8715;DHT22;4394;51.208;8.904;2023-09-12T15:58:31;25.80;99.90
8715;DHT22;4394;51.208;8.904;2023-09-12T16:01:19;25.60;99.90
8715;DHT22;4394;51.208;8.904;2023-09-12T16:04:07;25.50;99.90
8715;DHT22;4394;51.208;8.904;2023-09-12T16:06:56;25.50;99.90
8715;DHT22;4394;51.208;8.904;2023-09-12T16:09:44;25.50;99.90
8715;DHT22;4394;51.208;8.904;2023-09-12T16:12:35;25.50;99.90
8715;DHT22;4394;51.208;8.904;2023-09-12T16:15:23;25.70;99.90
8715;DHT22;4394;51.208;8.904;2023-09-12T16:18:12;25.50;99.90
8715;DHT22;4394;51.208;8.904;2023-09-12T16:21:00;25.30;99.90
8715;DHT22;4394;51.208;8.904;2023-09-12T16:23:48;25.10;99.90
8715;DHT22;4394;51.208;8.904;2023-09-12T16:26:36;24.90;99.90
8715;DHT22;4394;51.208;8.904;2023-09-12T16:29:25;24.80;99.90
8715;DHT22;4394;51.208;8.904;2023-09-12T16:32:13;24.70;99.90
8715;DHT22;4394;51.208;8.904;2023-09-12T16:35:01;24.60;99.90
8715;DHT22;4394;51.208;8.904;2023-09-12T16:37:51;24.50;99.90
8715;DHT22;4394;51.208;8.904;2023-09-12T16:40:39;24.40;99.90
8715;DHT22;4394;51.208;8.904;2023-09-12T16:43:28;24.30;99.90
8715;DHT22;4394;51.208;8.904;2023-09-12T16:46:17;24.10;99.90
8715;DHT22;4394;51.208;8.904;2023-09-12T16:49:05;24.10;99.90
8715;DHT22;4394;51.208;8.904;2023-09-12T16:51:54;24.00;99.90
8715;DHT22;4394;51.208;8.904;2023-09-12T16:54:42;24.00;99.90
8715;DHT22;4394;51.208;8.904;2023-09-12T16:57:30;24.50;99.90
8715;DHT22;4394;51.208;8.904;2023-09-12T17:00:18;24.30;99.90
8715;DHT22;4394;51.208;8.904;2023-09-12T17:03:08;24.20;99.90
8715;DHT22;4394;51.208;8.904;2023-09-12T17:05:56;23.90;99.90
8715;DHT22;4394;51.208;8.904;2023-09-12T17:08:46;23.80;99.90
8715;DHT22;4394;51.208;8.904;2023-09-12T17:11:34;23.80;99.90
8715;DHT22;4394;51.208;8.904;2023-09-12T17:14:22;23.70;99.90
8715;DHT22;4394;51.208;8.904;2023-09-12T17:17:10;23.60;99.90
8715;DHT22;4394;51.208;8.904;2023-09-12T17:19:59;23.60;99.90
8715;DHT22;4394;51.208;8.904;2023-09-12T17:22:47;23.50;99.90
8715;DHT22;4394;51.208;8.904;2023-09-12T17:25:35;23.60;99.90
8715;DHT22;4394;51.208;8.904;2023-09-12T17:28:23;23.50;99.90
8715;DHT22;4394;51.208;8.904;2023-09-12T17:31:12;23.40;99.90
8715;DHT22;4394;51.208;8.904;2023-09-12T17:34:01;23.40;99.90
8715;DHT22;4394;51.208;8.904;2023-09-12T17:36:51;23.30;99.90
8715;DHT22;4394;51.208;8.904;2023-09-12T17:39:39;23.80;99.90
8715;DHT22;4394;51.208;8.904;2023-09-12T17:42:27;23.60;99.90
8715;DHT22;4394;51.208;8.904;2023-09-12T17:45:17;23.40;99.90
8715;DHT22;4394;51.208;8.904;2023-09-12T17:48:05;23.30;99.90
8715;DHT22;4394;51.208;8.904;2023-09-12T17:50:54;23.20;99.90
8715;DHT22;4394;51.208;8.904;2023-09-12T17:53:43;23.20;99.90
8715;DHT22;4394;51.208;8.904;2023-09-12T17:56:32;23.10;99.90
8715;DHT22;4394;51.208;8.904;2023-09-12T17:59:20;23.10;99.90
8715;DHT22;4394;51.208;8.904;2023-09-12T18:02:09;23.00;99.90
8715;DHT22;4394;51.208;8.904;2023-09-12T18:04:57;23.00;99.90
8715;DHT22;4394;51.208;8.904;2023-09-12T18:07:46;22.90;99.90
8715;DHT22;4394;51.208;8.904;2023-09-12T18:10:35;22.90;99.90
8715;DHT22;4394;51.208;8.904;2023-09-12T18:13:23;22.90;99.90
8715;DHT22;4394;51.208;8.904;2023-09-12T18:16:12;22.80;99.90
8715;DHT22;4394;51.208;8.904;2023-09-12T18:19:01;22.80;99.90
8715;DHT22;4394;51.208;8.904;2023-09-12T18:21:49;23.10;99.90
8715;DHT22;4394;51.208;8.904;2023-09-12T18:24:37;23.00;99.90
8715;DHT22;4394;51.208;8.904;2023-09-12T18:27:27;22.90;99.90